sensor_id;sensor_type;location;lat;lon;timestamp;pressure;altitude;pressure_sealevel;temperature;humidity
18900;BME280;9582;52.018;6.306;2023-10-13T00:01:20;95719.56;;;16.71;60.54
18900;BME280;9582;52.018;6.306;2023-10-13T00:03:47;95915.28;;;16.73;60.73
18900;BME280;9582;52.018;6.306;2023-10-13T00:06:13;95987.28;;;16.73;61.73
18900;BME280;9582;52.018;6.306;2023-10-13T00:08:41;96024.22;;;16.73;62.73
18900;BME280;9582;52.018;6.306;2023-10-13T00:11:11;96028.44;;;16.74;63.82
18900;BME280;9582;52.018;6.306;2023-10-13T00:13:39;96069.81;;;16.74;64.61
18900;BME280;9582;52.018;6.306;2023-10-13T00:16:16;96084.03;;;16.73;65.39
18900;BME280;9582;52.018;6.306;2023-10-13T00:18:47;96100.44;;;16.75;66.09
18900;BME280;9582;52.018;6.306;2023-10-13T00:21:14;96103.31;;;16.73;66.87
18900;BME280;9582;52.018;6.306;2023-10-13T00:23:45;96052.16;;;16.74;69.68
18900;BME280;9582;52.018;6.306;2023-10-13T00:26:18;96091.28;;;16.78;68.47
18900;BME280;9582;52.018;6.306;2023-10-13T00:28:50;96114.19;;;16.77;70.49
18900;BME280;9582;52.018;6.306;2023-10-13T00:31:27;96110.75;;;16.77;74.48
18900;BME280;9582;52.018;6.306;2023-10-13T00:33:58;96108.94;;;16.77;78.52
18900;BME280;9582;52.018;6.306;2023-10-13T00:36:34;96122.94;;;16.78;82.50
18900;BME280;9582;52.018;6.306;2023-10-13T00:39:01;96132.47;;;16.79;89.48
18900;BME280;9582;52.018;6.306;2023-10-13T00:41:30;96137.94;;;16.77;96.03
18900;BME280;9582;52.018;6.306;2023-10-13T00:44:17;96144.03;;;16.78;100.00
18900;BME280;9582;52.018;6.306;2023-10-13T00:46:51;96152.75;;;16.78;100.00
18900;BME280;9582;52.018;6.306;2023-10-13T00:49:21;96154.81;;;16.76;100.00
18900;BME280;9582;52.018;6.306;2023-10-13T00:51:47;96166.38;;;16.75;100.00
18900;BME280;9582;52.018;6.306;2023-10-13T00:54:14;96168.44;;;16.73;100.00
18900;BME280;9582;52.018;6.306;2023-10-13T00:56:45;96164.16;;;16.72;100.00
18900;BME280;9582;52.018;6.306;2023-10-13T00:59:12;96174.72;;;16.72;100.00
18900;BME280;9582;52.018;6.306;2023-10-13T01:01:41;96176.53;;;16.71;100.00
18900;BME280;9582;52.018;6.306;2023-10-13T01:04:09;96191.34;;;16.72;100.00
18900;BME280;9582;52.018;6.306;2023-10-13T01:06:38;96194.78;;;16.73;100.00
18900;BME280;9582;52.018;6.306;2023-10-13T01:09:05;96199.03;;;16.74;100.00
18900;BME280;9582;52.018;6.306;2023-10-13T01:11:39;96198.25;;;16.73;100.00
18900;BME280;9582;52.018;6.306;2023-10-13T01:14:05;96213.84;;;16.75;100.00
18900;BME280;9582;52.018;6.306;2023-10-13T01:16:31;96204.31;;;16.74;100.00
18900;BME280;9582;52.018;6.306;2023-10-13T01:18:59;96185.84;;;16.74;100.00
18900;BME280;9582;52.018;6.306;2023-10-13T01:21:30;96201.66;;;16.74;100.00
18900;BME280;9582;52.018;6.306;2023-10-13T01:24:00;96204.91;;;16.76;100.00
18900;BME280;9582;52.018;6.306;2023-10-13T01:26:26;96206.50;;;16.77;100.00
18900;BME280;9582;52.018;6.306;2023-10-13T01:28:57;96217.06;;;16.77;100.00
18900;BME280;9582;52.018;6.306;2023-10-13T01:31:23;96223.13;;;16.78;100.00
18900;BME280;9582;52.018;6.306;2023-10-13T01:33:55;96157.22;;;16.78;100.00
18900;BME280;9582;52.018;6.306;2023-10-13T01:36:24;96190.47;;;16.79;100.00
18900;BME280;9582;52.018;6.306;2023-10-13T01:38:50;96203.66;;;16.79;100.00
18900;BME280;9582;52.018;6.306;2023-10-13T01:41:20;96216.63;;;16.80;100.00
18900;BME280;9582;52.018;6.306;2023-10-13T01:43:46;96221.88;;;16.80;100.00
18900;BME280;9582;52.018;6.306;2023-10-13T01:46:14;96226.16;;;16.81;100.00
18900;BME280;9582;52.018;6.306;2023-10-13T01:48:41;96231.44;;;16.81;100.00
18900;BME280;9582;52.018;6.306;2023-10-13T01:51:09;96234.88;;;16.82;100.00
18900;BME280;9582;52.018;6.306;2023-10-13T01:53:36;96236.69;;;16.81;100.00
18900;BME280;9582;52.018;6.306;2023-10-13T01:56:04;96243.81;;;16.81;100.00
18900;BME280;9582;52.018;6.306;2023-10-13T01:58:37;96240.16;;;16.82;100.00
18900;BME280;9582;52.018;6.306;2023-10-13T02:01:07;96255.16;;;16.81;100.00
18900;BME280;9582;52.018;6.306;2023-10-13T02:03:33;96258.00;;;16.80;100.00
18900;BME280;9582;52.018;6.306;2023-10-13T02:05:59;96247.44;;;16.80;100.00
18900;BME280;9582;52.018;6.306;2023-10-13T02:08:30;96265.91;;;16.80;100.00
18900;BME280;9582;52.018;6.306;2023-10-13T02:10:57;96262.50;;;16.79;100.00
18900;BME280;9582;52.018;6.306;2023-10-13T02:13:25;96261.88;;;16.77;100.00
18900;BME280;9582;52.018;6.306;2023-10-13T02:15:55;96278.75;;;16.76;100.00
18900;BME280;9582;52.018;6.306;2023-10-13T02:18:22;96302.47;;;16.76;100.00
18900;BME280;9582;52.018;6.306;2023-10-13T02:20:53;96305.56;;;16.73;100.00
18900;BME280;9582;52.018;6.306;2023-10-13T02:23:22;96316.09;;;16.73;100.00
18900;BME280;9582;52.018;6.306;2023-10-13T02:25:50;96331.13;;;16.72;100.00
18900;BME280;9582;52.018;6.306;2023-10-13T02:28:25;96323.63;;;16.69;100.00
18900;BME280;9582;52.018;6.306;2023-10-13T02:30:55;96337.03;;;16.68;100.00
18900;BME280;9582;52.018;6.306;2023-10-13T02:33:23;96338.63;;;16.69;100.00
18900;BME280;9582;52.018;6.306;2023-10-13T02:35:55;96344.72;;;16.69;100.00
18900;BME280;9582;52.018;6.306;2023-10-13T02:38:20;96351.63;;;16.70;100.00
18900;BME280;9582;52.018;6.306;2023-10-13T02:40:58;96348.75;;;16.72;100.00
18900;BME280;9582;52.018;6.306;2023-10-13T02:43:32;96360.31;;;16.71;100.00
18900;BME280;9582;52.018;6.306;2023-10-13T02:46:00;96361.13;;;16.71;100.00
18900;BME280;9582;52.018;6.306;2023-10-13T02:48:27;96372.50;;;16.72;100.00
18900;BME280;9582;52.018;6.306;2023-10-13T02:50:57;96367.22;;;16.72;100.00
18900;BME280;9582;52.018;6.306;2023-10-13T02:53:28;96383.03;;;16.72;100.00
18900;BME280;9582;52.018;6.306;2023-10-13T02:55:55;96389.13;;;16.72;100.00
18900;BME280;9582;52.018;6.306;2023-10-13T02:58:23;96397.22;;;16.71;100.00
18900;BME280;9582;52.018;6.306;2023-10-13T03:01:06;96390.94;;;16.72;100.00
18900;BME280;9582;52.018;6.306;2023-10-13T03:03:43;96391.97;;;16.71;100.00
18900;BME280;9582;52.018;6.306;2023-10-13T03:06:10;96398.88;;;16.72;100.00
18900;BME280;9582;52.018;6.306;2023-10-13T03:08:38;96412.28;;;16.70;100.00
18900;BME280;9582;52.018;6.306;2023-10-13T03:11:04;96409.41;;;16.72;100.00
18900;BME280;9582;52.018;6.306;2023-10-13T03:13:31;96418.13;;;16.72;100.00
18900;BME280;9582;52.018;6.306;2023-10-13T03:15:58;96423.03;;;16.69;100.00
18900;BME280;9582;52.018;6.306;2023-10-13T03:18:26;96400.91;;;16.70;100.00
18900;BME280;9582;52.018;6.306;2023-10-13T03:20:52;96400.34;;;16.68;100.00
18900;BME280;9582;52.018;6.306;2023-10-13T03:23:22;96315.56;;;16.64;100.00
18900;BME280;9582;52.018;6.306;2023-10-13T03:25:49;96337.03;;;16.68;100.00
18900;BME280;9582;52.018;6.306;2023-10-13T03:28:19;96368.69;;;16.68;100.00
18900;BME280;9582;52.018;6.306;2023-10-13T03:30:51;96387.34;;;16.66;100.00
18900;BME280;9582;52.018;6.306;2023-10-13T03:33:18;96383.06;;;16.65;100.00
18900;BME280;9582;52.018;6.306;2023-10-13T03:35:53;96380.00;;;16.68;100.00
18900;BME280;9582;52.018;6.306;2023-10-13T03:38:20;96388.34;;;16.65;100.00
18900;BME280;9582;52.018;6.306;2023-10-13T03:40:52;96350.44;;;16.66;100.00
18900;BME280;9582;52.018;6.306;2023-10-13T03:43:32;96390.41;;;16.63;100.00
18900;BME280;9582;52.018;6.306;2023-10-13T03:46:10;96394.06;;;16.62;100.00
18900;BME280;9582;52.018;6.306;2023-10-13T03:48:37;96386.13;;;16.62;100.00
18900;BME280;9582;52.018;6.306;2023-10-13T03:51:18;96377.44;;;16.62;100.00
18900;BME280;9582;52.018;6.306;2023-10-13T03:53:46;96379.03;;;16.63;100.00
18900;BME280;9582;52.018;6.306;2023-10-13T03:56:19;96374.00;;;16.61;100.00
18900;BME280;9582;52.018;6.306;2023-10-13T03:58:52;96358.75;;;16.63;100.00
18900;BME280;9582;52.018;6.306;2023-10-13T04:01:21;96355.28;;;16.69;100.00
18900;BME280;9582;52.018;6.306;2023-10-13T04:03:57;96327.81;;;16.77;100.00
18900;BME280;9582;52.018;6.306;2023-10-13T04:06:30;96336.38;;;16.72;100.00
18900;BME280;9582;52.018;6.306;2023-10-13T04:09:14;96333.22;;;16.64;100.00
18900;BME280;9582;52.018;6.306;2023-10-13T04:11:59;96298.66;;;16.72;100.00
18900;BME280;9582;52.018;6.306;2023-10-13T04:14:42;96275.00;;;16.84;100.00
18900;BME280;9582;52.018;6.306;2023-10-13T04:17:26;96282.25;;;16.70;100.00
18900;BME280;9582;52.018;6.306;2023-10-13T04:19:54;96273.28;;;16.71;100.00
18900;BME280;9582;52.018;6.306;2023-10-13T04:22:37;96260.56;;;16.68;100.00
18900;BME280;9582;52.018;6.306;2023-10-13T04:25:20;96266.84;;;16.67;100.00
18900;BME280;9582;52.018;6.306;2023-10-13T04:28:15;96005.03;;;16.66;100.00
18900;BME280;9582;52.018;6.306;2023-10-13T04:30:59;96020.03;;;16.66;100.00
18900;BME280;9582;52.018;6.306;2023-10-13T04:33:33;96050.06;;;16.65;100.00
18900;BME280;9582;52.018;6.306;2023-10-13T04:36:10;96055.78;;;16.62;100.00
18900;BME280;9582;52.018;6.306;2023-10-13T04:38:39;96059.44;;;16.61;100.00
18900;BME280;9582;52.018;6.306;2023-10-13T04:41:21;96057.03;;;16.59;100.00
18900;BME280;9582;52.018;6.306;2023-10-13T04:43:49;96070.44;;;16.58;100.00
18900;BME280;9582;52.018;6.306;2023-10-13T04:46:23;96067.22;;;16.56;100.00
18900;BME280;9582;52.018;6.306;2023-10-13T04:49:01;96065.59;;;16.55;100.00
18900;BME280;9582;52.018;6.306;2023-10-13T04:51:36;96067.63;;;16.53;100.00
18900;BME280;9582;52.018;6.306;2023-10-13T04:54:23;96061.53;;;16.52;100.00
18900;BME280;9582;52.018;6.306;2023-10-13T04:56:59;96071.28;;;16.52;100.00
18900;BME280;9582;52.018;6.306;2023-10-13T04:59:47;96068.47;;;16.53;100.00
18900;BME280;9582;52.018;6.306;2023-10-13T05:02:32;96062.16;;;16.54;100.00
18900;BME280;9582;52.018;6.306;2023-10-13T05:05:16;96055.06;;;16.55;100.00
18900;BME280;9582;52.018;6.306;2023-10-13T05:08:03;96033.75;;;16.56;100.00
18900;BME280;9582;52.018;6.306;2023-10-13T05:10:47;96016.09;;;16.57;100.00
18900;BME280;9582;52.018;6.306;2023-10-13T05:13:32;95996.03;;;16.56;100.00
18900;BME280;9582;52.018;6.306;2023-10-13T05:16:17;96001.88;;;16.58;100.00
18900;BME280;9582;52.018;6.306;2023-10-13T05:19:01;95998.72;;;16.67;100.00
18900;BME280;9582;52.018;6.306;2023-10-13T05:21:45;95985.88;;;16.71;100.00
18900;BME280;9582;52.018;6.306;2023-10-13T05:24:30;95983.47;;;16.69;100.00
18900;BME280;9582;52.018;6.306;2023-10-13T05:27:14;95970.41;;;16.74;97.72
18900;BME280;9582;52.018;6.306;2023-10-13T05:29:58;95928.38;;;16.91;85.09
18900;BME280;9582;52.018;6.306;2023-10-13T05:32:44;95911.88;;;16.96;86.74
18900;BME280;9582;52.018;6.306;2023-10-13T05:35:30;95908.09;;;17.03;69.87
18900;BME280;9582;52.018;6.306;2023-10-13T05:38:15;95885.84;;;17.11;71.76
18900;BME280;9582;52.018;6.306;2023-10-13T05:41:01;95877.94;;;17.11;66.17
18900;BME280;9582;52.018;6.306;2023-10-13T05:43:46;95854.88;;;17.18;64.66
18900;BME280;9582;52.018;6.306;2023-10-13T05:46:30;95834.13;;;17.21;64.07
18900;BME280;9582;52.018;6.306;2023-10-13T05:49:28;95813.94;;;17.27;63.43
18900;BME280;9582;52.018;6.306;2023-10-13T05:52:12;95780.66;;;17.26;62.15
18900;BME280;9582;52.018;6.306;2023-10-13T05:55:05;95748.06;;;17.32;61.62
18900;BME280;9582;52.018;6.306;2023-10-13T05:57:50;95731.03;;;17.40;61.28
18900;BME280;9582;52.018;6.306;2023-10-13T06:00:38;95709.22;;;17.44;61.18
18900;BME280;9582;52.018;6.306;2023-10-13T06:03:23;95693.50;;;17.49;61.04
18900;BME280;9582;52.018;6.306;2023-10-13T06:06:07;95674.66;;;17.57;61.43
18900;BME280;9582;52.018;6.306;2023-10-13T06:08:51;95639.88;;;17.77;63.79
18900;BME280;9582;52.018;6.306;2023-10-13T06:11:36;95632.34;;;17.85;79.61
18900;BME280;9582;52.018;6.306;2023-10-13T06:14:20;95628.44;;;17.88;100.00
18900;BME280;9582;52.018;6.306;2023-10-13T06:17:04;95660.13;;;17.88;100.00
18900;BME280;9582;52.018;6.306;2023-10-13T06:19:48;95695.88;;;17.79;100.00
18900;BME280;9582;52.018;6.306;2023-10-13T06:22:34;95718.06;;;17.78;100.00
18900;BME280;9582;52.018;6.306;2023-10-13T06:25:18;95736.91;;;17.70;100.00
18900;BME280;9582;52.018;6.306;2023-10-13T06:28:02;95752.53;;;17.71;100.00
18900;BME280;9582;52.018;6.306;2023-10-13T06:30:54;95738.34;;;17.89;100.00
18900;BME280;9582;52.018;6.306;2023-10-13T06:33:22;95742.00;;;17.88;100.00
18900;BME280;9582;52.018;6.306;2023-10-13T06:35:55;95774.53;;;17.88;100.00
18900;BME280;9582;52.018;6.306;2023-10-13T06:38:23;95826.66;;;17.81;100.00
18900;BME280;9582;52.018;6.306;2023-10-13T06:40:49;95834.72;;;17.86;100.00
18900;BME280;9582;52.018;6.306;2023-10-13T06:43:17;95856.88;;;17.85;100.00
18900;BME280;9582;52.018;6.306;2023-10-13T06:45:48;95883.88;;;17.76;100.00
18900;BME280;9582;52.018;6.306;2023-10-13T06:48:23;95884.31;;;17.84;100.00
18900;BME280;9582;52.018;6.306;2023-10-13T06:50:50;95902.34;;;17.76;100.00
18900;BME280;9582;52.018;6.306;2023-10-13T06:53:18;95901.34;;;17.77;100.00
18900;BME280;9582;52.018;6.306;2023-10-13T06:55:45;95900.88;;;17.80;100.00
18900;BME280;9582;52.018;6.306;2023-10-13T06:58:14;95903.16;;;17.88;100.00
18900;BME280;9582;52.018;6.306;2023-10-13T07:00:43;95901.41;;;17.94;100.00
18900;BME280;9582;52.018;6.306;2023-10-13T07:03:18;95919.00;;;17.88;100.00
18900;BME280;9582;52.018;6.306;2023-10-13T07:05:45;95927.94;;;17.87;100.00
18900;BME280;9582;52.018;6.306;2023-10-13T07:08:14;95927.47;;;17.90;100.00
18900;BME280;9582;52.018;6.306;2023-10-13T07:10:49;95930.94;;;17.91;100.00
18900;BME280;9582;52.018;6.306;2023-10-13T07:13:17;95946.66;;;17.97;100.00
18900;BME280;9582;52.018;6.306;2023-10-13T07:15:45;95950.69;;;17.88;100.00
18900;BME280;9582;52.018;6.306;2023-10-13T07:18:12;95951.94;;;17.97;100.00
18900;BME280;9582;52.018;6.306;2023-10-13T07:20:40;95950.69;;;18.00;100.00
18900;BME280;9582;52.018;6.306;2023-10-13T07:23:10;95955.72;;;18.01;100.00
18900;BME280;9582;52.018;6.306;2023-10-13T07:25:50;95963.09;;;17.99;100.00
18900;BME280;9582;52.018;6.306;2023-10-13T07:28:18;95971.56;;;18.01;100.00
18900;BME280;9582;52.018;6.306;2023-10-13T07:30:45;95973.66;;;17.99;100.00
18900;BME280;9582;52.018;6.306;2023-10-13T07:33:36;95977.22;;;17.93;100.00
18900;BME280;9582;52.018;6.306;2023-10-13T07:36:04;95987.88;;;17.98;100.00
18900;BME280;9582;52.018;6.306;2023-10-13T07:38:36;95999.03;;;18.00;100.00
18900;BME280;9582;52.018;6.306;2023-10-13T07:41:03;95991.13;;;18.00;100.00
18900;BME280;9582;52.018;6.306;2023-10-13T07:43:35;96012.72;;;17.97;100.00
18900;BME280;9582;52.018;6.306;2023-10-13T07:46:03;96000.31;;;17.98;100.00
18900;BME280;9582;52.018;6.306;2023-10-13T07:48:36;96000.53;;;17.96;100.00
18900;BME280;9582;52.018;6.306;2023-10-13T07:51:04;96012.72;;;17.97;100.00
18900;BME280;9582;52.018;6.306;2023-10-13T07:53:31;96011.09;;;17.96;100.00
18900;BME280;9582;52.018;6.306;2023-10-13T07:56:02;96010.06;;;17.97;100.00
18900;BME280;9582;52.018;6.306;2023-10-13T07:58:30;96010.75;;;18.04;100.00
18900;BME280;9582;52.018;6.306;2023-10-13T08:01:00;96016.50;;;18.01;100.00
18900;BME280;9582;52.018;6.306;2023-10-13T08:03:42;96013.06;;;18.01;100.00
18900;BME280;9582;52.018;6.306;2023-10-13T08:06:12;96019.25;;;18.06;100.00
18900;BME280;9582;52.018;6.306;2023-10-13T08:08:51;96026.69;;;18.09;100.00
18900;BME280;9582;52.018;6.306;2023-10-13T08:11:19;96034.88;;;18.08;100.00
18900;BME280;9582;52.018;6.306;2023-10-13T08:13:57;96051.53;;;18.08;100.00
18900;BME280;9582;52.018;6.306;2023-10-13T08:16:28;96045.44;;;18.08;100.00
18900;BME280;9582;52.018;6.306;2023-10-13T08:19:11;96044.88;;;18.17;100.00
18900;BME280;9582;52.018;6.306;2023-10-13T08:21:40;96056.00;;;18.19;100.00
18900;BME280;9582;52.018;6.306;2023-10-13T08:24:14;96086.34;;;18.17;100.00
18900;BME280;9582;52.018;6.306;2023-10-13T08:26:41;96094.03;;;18.18;100.00
18900;BME280;9582;52.018;6.306;2023-10-13T08:29:25;96100.13;;;18.19;100.00
18900;BME280;9582;52.018;6.306;2023-10-13T08:32:13;96130.56;;;18.21;100.00
18900;BME280;9582;52.018;6.306;2023-10-13T08:35:02;96134.59;;;18.24;100.00
18900;BME280;9582;52.018;6.306;2023-10-13T08:37:48;96155.75;;;18.35;100.00
18900;BME280;9582;52.018;6.306;2023-10-13T08:40:26;96161.13;;;18.40;100.00
18900;BME280;9582;52.018;6.306;2023-10-13T08:43:13;96185.53;;;18.42;100.00
18900;BME280;9582;52.018;6.306;2023-10-13T08:45:42;96186.34;;;18.55;100.00
18900;BME280;9582;52.018;6.306;2023-10-13T08:48:26;96212.47;;;18.63;100.00
18900;BME280;9582;52.018;6.306;2023-10-13T08:50:57;96226.56;;;18.80;100.00
18900;BME280;9582;52.018;6.306;2023-10-13T08:53:36;96249.16;;;18.82;100.00
18900;BME280;9582;52.018;6.306;2023-10-13T08:56:12;96285.13;;;18.83;100.00
18900;BME280;9582;52.018;6.306;2023-10-13T08:58:42;96312.53;;;18.89;100.00
18900;BME280;9582;52.018;6.306;2023-10-13T09:01:27;96361.19;;;18.99;100.00
18900;BME280;9582;52.018;6.306;2023-10-13T09:04:04;96414.84;;;19.07;100.00
18900;BME280;9582;52.018;6.306;2023-10-13T09:06:47;96467.09;;;19.11;100.00
18900;BME280;9582;52.018;6.306;2023-10-13T09:09:26;96499.00;;;19.16;100.00
18900;BME280;9582;52.018;6.306;2023-10-13T09:12:00;96530.88;;;19.21;100.00
18900;BME280;9582;52.018;6.306;2023-10-13T09:14:35;96580.81;;;19.18;100.00
18900;BME280;9582;52.018;6.306;2023-10-13T09:17:04;96612.16;;;19.21;100.00
18900;BME280;9582;52.018;6.306;2023-10-13T09:20:00;96636.94;;;19.26;100.00
18900;BME280;9582;52.018;6.306;2023-10-13T09:22:49;96673.31;;;19.31;100.00
18900;BME280;9582;52.018;6.306;2023-10-13T09:25:22;96727.34;;;19.30;100.00
18900;BME280;9582;52.018;6.306;2023-10-13T09:27:49;96788.25;;;19.30;100.00
18900;BME280;9582;52.018;6.306;2023-10-13T09:30:18;96849.88;;;19.37;100.00
18900;BME280;9582;52.018;6.306;2023-10-13T09:32:59;96917.69;;;19.44;100.00
18900;BME280;9582;52.018;6.306;2023-10-13T09:35:28;97034.19;;;19.51;100.00
18900;BME280;9582;52.018;6.306;2023-10-13T09:37:58;97124.88;;;19.53;100.00
18900;BME280;9582;52.018;6.306;2023-10-13T09:40:24;97298.88;;;19.59;100.00
18900;BME280;9582;52.018;6.306;2023-10-13T09:43:00;97571.22;;;19.57;100.00
18900;BME280;9582;52.018;6.306;2023-10-13T09:45:33;97730.22;;;19.57;100.00
18900;BME280;9582;52.018;6.306;2023-10-13T09:48:02;97797.28;;;19.51;100.00
18900;BME280;9582;52.018;6.306;2023-10-13T09:50:36;97872.66;;;19.42;100.00
18900;BME280;9582;52.018;6.306;2023-10-13T09:53:06;97920.06;;;19.37;100.00
18900;BME280;9582;52.018;6.306;2023-10-13T09:55:37;97968.59;;;19.37;100.00
18900;BME280;9582;52.018;6.306;2023-10-13T09:58:06;98000.38;;;19.37;100.00
18900;BME280;9582;52.018;6.306;2023-10-13T10:00:37;98064.34;;;19.34;100.00
18900;BME280;9582;52.018;6.306;2023-10-13T10:03:21;98118.38;;;19.33;100.00
18900;BME280;9582;52.018;6.306;2023-10-13T10:06:06;98192.84;;;19.38;100.00
18900;BME280;9582;52.018;6.306;2023-10-13T10:08:39;98220.97;;;19.39;100.00
18900;BME280;9582;52.018;6.306;2023-10-13T10:14:15;98289.31;;;19.44;100.00
18900;BME280;9582;52.018;6.306;2023-10-13T10:16:54;98328.59;;;19.40;100.00
18900;BME280;9582;52.018;6.306;2023-10-13T10:19:25;98363.94;;;19.47;100.00
18900;BME280;9582;52.018;6.306;2023-10-13T10:22:02;98404.09;;;19.44;100.00
18900;BME280;9582;52.018;6.306;2023-10-13T10:24:35;98443.09;;;19.50;100.00
18900;BME280;9582;52.018;6.306;2023-10-13T10:27:03;98480.38;;;19.49;100.00
18900;BME280;9582;52.018;6.306;2023-10-13T10:29:31;98515.94;;;19.54;100.00
18900;BME280;9582;52.018;6.306;2023-10-13T10:31:57;98552.41;;;19.52;100.00
18900;BME280;9582;52.018;6.306;2023-10-13T10:34:30;98584.31;;;19.59;100.00
18900;BME280;9582;52.018;6.306;2023-10-13T10:36:58;98619.72;;;19.66;100.00
18900;BME280;9582;52.018;6.306;2023-10-13T10:39:34;98663.81;;;19.67;100.00
18900;BME280;9582;52.018;6.306;2023-10-13T10:42:10;98700.72;;;19.69;100.00
18900;BME280;9582;52.018;6.306;2023-10-13T10:44:42;98747.47;;;19.70;100.00
18900;BME280;9582;52.018;6.306;2023-10-13T10:47:13;98780.47;;;19.67;100.00
18900;BME280;9582;52.018;6.306;2023-10-13T10:49:55;98830.66;;;19.69;100.00
18900;BME280;9582;52.018;6.306;2023-10-13T10:52:23;98867.28;;;19.65;100.00
18900;BME280;9582;52.018;6.306;2023-10-13T10:54:59;98883.19;;;19.65;100.00
18900;BME280;9582;52.018;6.306;2023-10-13T10:57:26;98897.47;;;19.64;100.00
18900;BME280;9582;52.018;6.306;2023-10-13T10:59:54;98908.88;;;19.65;100.00
18900;BME280;9582;52.018;6.306;2023-10-13T11:02:36;98915.84;;;19.66;100.00
18900;BME280;9582;52.018;6.306;2023-10-13T11:05:03;98919.63;;;19.71;100.00
18900;BME280;9582;52.018;6.306;2023-10-13T11:07:31;98923.59;;;19.75;100.00
18900;BME280;9582;52.018;6.306;2023-10-13T11:10:08;98927.72;;;19.78;100.00
18900;BME280;9582;52.018;6.306;2023-10-13T11:12:38;98929.81;;;19.90;100.00
18900;BME280;9582;52.018;6.306;2023-10-13T11:15:06;98939.38;;;19.99;100.00
18900;BME280;9582;52.018;6.306;2023-10-13T11:17:39;98959.91;;;20.05;100.00
18900;BME280;9582;52.018;6.306;2023-10-13T11:20:09;98972.66;;;20.10;100.00
18900;BME280;9582;52.018;6.306;2023-10-13T11:22:45;99003.44;;;20.19;100.00
18900;BME280;9582;52.018;6.306;2023-10-13T11:25:20;99002.78;;;20.25;100.00
18900;BME280;9582;52.018;6.306;2023-10-13T11:27:49;99031.47;;;20.22;100.00
18900;BME280;9582;52.018;6.306;2023-10-13T11:30:26;99067.97;;;20.20;100.00
18900;BME280;9582;52.018;6.306;2023-10-13T11:33:07;99101.28;;;20.22;100.00
18900;BME280;9582;52.018;6.306;2023-10-13T11:35:34;99148.41;;;20.20;100.00
18900;BME280;9582;52.018;6.306;2023-10-13T11:38:19;99167.34;;;20.17;100.00
18900;BME280;9582;52.018;6.306;2023-10-13T11:40:53;99174.16;;;20.11;100.00
18900;BME280;9582;52.018;6.306;2023-10-13T11:43:34;99189.25;;;20.11;100.00
18900;BME280;9582;52.018;6.306;2023-10-13T11:46:12;99208.66;;;20.11;100.00
18900;BME280;9582;52.018;6.306;2023-10-13T11:48:41;99226.38;;;20.11;100.00
18900;BME280;9582;52.018;6.306;2023-10-13T11:51:08;99226.06;;;20.14;100.00
18900;BME280;9582;52.018;6.306;2023-10-13T11:53:43;99222.56;;;20.13;100.00
18900;BME280;9582;52.018;6.306;2023-10-13T11:56:11;99212.47;;;20.09;100.00
18900;BME280;9582;52.018;6.306;2023-10-13T11:58:38;99219.41;;;20.18;100.00
18900;BME280;9582;52.018;6.306;2023-10-13T12:01:05;99233.50;;;20.27;100.00
18900;BME280;9582;52.018;6.306;2023-10-13T12:03:46;99229.03;;;20.35;100.00
18900;BME280;9582;52.018;6.306;2023-10-13T12:06:32;99228.66;;;20.46;100.00
18900;BME280;9582;52.018;6.306;2023-10-13T12:09:12;99234.34;;;20.43;100.00
18900;BME280;9582;52.018;6.306;2023-10-13T12:11:58;99238.81;;;20.43;100.00
18900;BME280;9582;52.018;6.306;2023-10-13T12:14:27;99273.97;;;20.53;100.00
18900;BME280;9582;52.018;6.306;2023-10-13T12:16:55;99275.94;;;20.59;100.00
18900;BME280;9582;52.018;6.306;2023-10-13T12:19:28;99274.94;;;20.68;100.00
18900;BME280;9582;52.018;6.306;2023-10-13T12:21:56;99277.06;;;20.72;100.00
18900;BME280;9582;52.018;6.306;2023-10-13T12:24:23;99296.97;;;20.85;100.00
18900;BME280;9582;52.018;6.306;2023-10-13T12:27:07;99307.22;;;20.96;100.00
18900;BME280;9582;52.018;6.306;2023-10-13T12:29:45;99298.22;;;21.05;100.00
18900;BME280;9582;52.018;6.306;2023-10-13T12:32:12;99314.16;;;21.05;100.00
18900;BME280;9582;52.018;6.306;2023-10-13T12:34:39;99317.81;;;21.04;100.00
18900;BME280;9582;52.018;6.306;2023-10-13T12:37:26;99346.06;;;21.13;100.00
18900;BME280;9582;52.018;6.306;2023-10-13T12:40:18;99417.81;;;21.13;100.00
18900;BME280;9582;52.018;6.306;2023-10-13T12:43:04;99448.72;;;21.14;100.00
18900;BME280;9582;52.018;6.306;2023-10-13T12:45:50;99440.06;;;21.20;100.00
18900;BME280;9582;52.018;6.306;2023-10-13T12:48:35;99447.88;;;21.21;100.00
18900;BME280;9582;52.018;6.306;2023-10-13T12:51:20;99466.47;;;21.29;100.00
18900;BME280;9582;52.018;6.306;2023-10-13T12:54:05;99475.59;;;21.35;100.00
18900;BME280;9582;52.018;6.306;2023-10-13T12:56:39;99481.75;;;21.36;100.00
18900;BME280;9582;52.018;6.306;2023-10-13T12:59:08;99491.38;;;21.37;100.00
18900;BME280;9582;52.018;6.306;2023-10-13T13:01:38;99484.06;;;21.39;100.00
18900;BME280;9582;52.018;6.306;2023-10-13T13:04:07;99500.19;;;21.37;100.00
18900;BME280;9582;52.018;6.306;2023-10-13T13:06:37;99504.00;;;21.35;100.00
18900;BME280;9582;52.018;6.306;2023-10-13T13:09:05;99513.81;;;21.26;100.00
18900;BME280;9582;52.018;6.306;2023-10-13T13:11:35;99520.50;;;21.22;100.00
18900;BME280;9582;52.018;6.306;2023-10-13T13:14:05;99524.63;;;21.24;100.00
18900;BME280;9582;52.018;6.306;2023-10-13T13:16:35;99528.13;;;21.25;100.00
18900;BME280;9582;52.018;6.306;2023-10-13T13:19:04;99523.16;;;21.22;100.00
18900;BME280;9582;52.018;6.306;2023-10-13T13:21:35;99528.13;;;21.25;100.00
18900;BME280;9582;52.018;6.306;2023-10-13T13:24:02;99522.97;;;21.23;100.00
18900;BME280;9582;52.018;6.306;2023-10-13T13:26:30;99528.78;;;21.27;100.00
18900;BME280;9582;52.018;6.306;2023-10-13T13:28:57;99530.09;;;21.23;100.00
18900;BME280;9582;52.018;6.306;2023-10-13T13:31:24;99539.44;;;21.19;100.00
18900;BME280;9582;52.018;6.306;2023-10-13T13:33:55;99544.91;;;21.17;100.00
18900;BME280;9582;52.018;6.306;2023-10-13T13:36:22;99546.91;;;21.15;100.00
18900;BME280;9582;52.018;6.306;2023-10-13T13:38:49;99545.06;;;21.16;100.00
18900;BME280;9582;52.018;6.306;2023-10-13T13:41:17;99553.22;;;21.14;100.00